sensor_id;sensor_type;location;lat;lon;timestamp;P1;durP1;ratioP1;P2;durP2;ratioP2
16099;SDS011;8154;50.830;12.082;2022-08-20T00:01:31;3.00;;;2.80;;
16099;SDS011;8154;50.830;12.082;2022-08-20T00:04:16;3.10;;;2.90;;
16099;SDS011;8154;50.830;12.082;2022-08-20T00:07:00;3.08;;;2.78;;
16099;SDS011;8154;50.830;12.082;2022-08-20T00:09:45;3.00;;;2.80;;
16099;SDS011;8154;50.830;12.082;2022-08-20T00:12:30;3.00;;;2.80;;
16099;SDS011;8154;50.830;12.082;2022-08-20T00:15:15;3.10;;;2.78;;
16099;SDS011;8154;50.830;12.082;2022-08-20T00:18:05;3.03;;;2.83;;
16099;SDS011;8154;50.830;12.082;2022-08-20T00:20:51;3.40;;;3.10;;
16099;SDS011;8154;50.830;12.082;2022-08-20T00:23:38;3.08;;;2.80;;
16099;SDS011;8154;50.830;12.082;2022-08-20T00:26:24;3.47;;;3.17;;
16099;SDS011;8154;50.830;12.082;2022-08-20T00:29:08;3.47;;;3.17;;
16099;SDS011;8154;50.830;12.082;2022-08-20T00:31:53;3.15;;;2.95;;
16099;SDS011;8154;50.830;12.082;2022-08-20T00:34:37;3.20;;;2.90;;
16099;SDS011;8154;50.830;12.082;2022-08-20T00:37:22;3.00;;;2.80;;
16099;SDS011;8154;50.830;12.082;2022-08-20T00:40:07;3.20;;;3.00;;
16099;SDS011;8154;50.830;12.082;2022-08-20T00:42:56;3.10;;;2.90;;
16099;SDS011;8154;50.830;12.082;2022-08-20T00:45:42;3.75;;;2.97;;
16099;SDS011;8154;50.830;12.082;2022-08-20T00:48:28;3.30;;;3.10;;
16099;SDS011;8154;50.830;12.082;2022-08-20T00:57:11;3.50;;;3.17;;
16099;SDS011;8154;50.830;12.082;2022-08-20T01:00:07;3.38;;;3.05;;
16099;SDS011;8154;50.830;12.082;2022-08-20T01:03:05;3.00;;;2.80;;
16099;SDS011;8154;50.830;12.082;2022-08-20T01:05:52;3.67;;;3.10;;
16099;SDS011;8154;50.830;12.082;2022-08-20T01:08:38;3.28;;;2.97;;
16099;SDS011;8154;50.830;12.082;2022-08-20T01:11:24;3.05;;;2.83;;
16099;SDS011;8154;50.830;12.082;2022-08-20T01:14:18;3.00;;;2.80;;
16099;SDS011;8154;50.830;12.082;2022-08-20T01:17:07;3.28;;;2.97;;
16099;SDS011;8154;50.830;12.082;2022-08-20T01:19:56;3.20;;;3.00;;
16099;SDS011;8154;50.830;12.082;2022-08-20T01:26:12;3.30;;;3.00;;
16099;SDS011;8154;50.830;12.082;2022-08-20T01:29:03;2.90;;;2.70;;
16099;SDS011;8154;50.830;12.082;2022-08-20T01:31:53;3.38;;;3.10;;
16099;SDS011;8154;50.830;12.082;2022-08-20T01:34:44;3.45;;;3.15;;
16099;SDS011;8154;50.830;12.082;2022-08-20T01:37:28;2.90;;;2.70;;
16099;SDS011;8154;50.830;12.082;2022-08-20T01:40:13;3.10;;;2.80;;
16099;SDS011;8154;50.830;12.082;2022-08-20T01:43:04;3.42;;;3.13;;
16099;SDS011;8154;50.830;12.082;2022-08-20T01:45:50;3.40;;;3.10;;
16099;SDS011;8154;50.830;12.082;2022-08-20T01:48:37;3.60;;;3.30;;
16099;SDS011;8154;50.830;12.082;2022-08-20T01:51:23;3.28;;;2.97;;
16099;SDS011;8154;50.830;12.082;2022-08-20T01:54:12;3.00;;;2.80;;
16099;SDS011;8154;50.830;12.082;2022-08-20T01:56:58;3.25;;;3.03;;
16099;SDS011;8154;50.830;12.082;2022-08-20T01:59:46;3.65;;;3.10;;
16099;SDS011;8154;50.830;12.082;2022-08-20T02:02:33;3.00;;;2.80;;
16099;SDS011;8154;50.830;12.082;2022-08-20T02:05:17;3.03;;;2.72;;
16099;SDS011;8154;50.830;12.082;2022-08-20T02:08:03;4.10;;;2.80;;
16099;SDS011;8154;50.830;12.082;2022-08-20T02:10:47;3.00;;;2.70;;
16099;SDS011;8154;50.830;12.082;2022-08-20T02:13:32;3.20;;;3.00;;
16099;SDS011;8154;50.830;12.082;2022-08-20T02:16:18;3.00;;;2.80;;
16099;SDS011;8154;50.830;12.082;2022-08-20T02:19:09;3.30;;;3.00;;
16099;SDS011;8154;50.830;12.082;2022-08-20T02:22:02;3.25;;;2.95;;
16099;SDS011;8154;50.830;12.082;2022-08-20T02:24:54;2.97;;;2.78;;
16099;SDS011;8154;50.830;12.082;2022-08-20T02:27:39;4.10;;;3.13;;
16099;SDS011;8154;50.830;12.082;2022-08-20T02:30:28;3.40;;;3.10;;
16099;SDS011;8154;50.830;12.082;2022-08-20T02:33:18;4.78;;;2.90;;
16099;SDS011;8154;50.830;12.082;2022-08-20T02:36:04;3.30;;;3.08;;
16099;SDS011;8154;50.830;12.082;2022-08-20T02:38:49;3.30;;;3.00;;
16099;SDS011;8154;50.830;12.082;2022-08-20T02:41:35;3.25;;;3.05;;
16099;SDS011;8154;50.830;12.082;2022-08-20T02:44:20;3.08;;;2.83;;
16099;SDS011;8154;50.830;12.082;2022-08-20T02:47:05;3.72;;;2.90;;
16099;SDS011;8154;50.830;12.082;2022-08-20T02:49:49;4.20;;;3.00;;
16099;SDS011;8154;50.830;12.082;2022-08-20T02:52:34;2.78;;;2.58;;
16099;SDS011;8154;50.830;12.082;2022-08-20T02:55:19;5.05;;;2.95;;
16099;SDS011;8154;50.830;12.082;2022-08-20T02:58:03;5.75;;;3.20;;
16099;SDS011;8154;50.830;12.082;2022-08-20T03:00:48;3.40;;;3.10;;
16099;SDS011;8154;50.830;12.082;2022-08-20T03:03:34;3.63;;;3.05;;
16099;SDS011;8154;50.830;12.082;2022-08-20T03:06:18;3.13;;;2.92;;
16099;SDS011;8154;50.830;12.082;2022-08-20T03:09:04;3.25;;;3.00;;
16099;SDS011;8154;50.830;12.082;2022-08-20T03:11:51;3.28;;;3.08;;
16099;SDS011;8154;50.830;12.082;2022-08-20T03:14:36;3.50;;;3.20;;
16099;SDS011;8154;50.830;12.082;2022-08-20T03:17:21;3.67;;;3.28;;
16099;SDS011;8154;50.830;12.082;2022-08-20T03:20:06;3.13;;;2.80;;
16099;SDS011;8154;50.830;12.082;2022-08-20T03:22:51;3.20;;;2.90;;
16099;SDS011;8154;50.830;12.082;2022-08-20T03:25:37;3.40;;;3.10;;
16099;SDS011;8154;50.830;12.082;2022-08-20T03:28:22;4.00;;;3.40;;
16099;SDS011;8154;50.830;12.082;2022-08-20T03:31:06;3.85;;;3.50;;
16099;SDS011;8154;50.830;12.082;2022-08-20T03:33:50;3.53;;;3.22;;
16099;SDS011;8154;50.830;12.082;2022-08-20T03:36:35;3.33;;;3.03;;
16099;SDS011;8154;50.830;12.082;2022-08-20T03:39:19;3.47;;;3.17;;
16099;SDS011;8154;50.830;12.082;2022-08-20T03:42:04;4.43;;;3.25;;
16099;SDS011;8154;50.830;12.082;2022-08-20T03:44:49;3.67;;;3.38;;
16099;SDS011;8154;50.830;12.082;2022-08-20T03:47:34;3.33;;;3.13;;
16099;SDS011;8154;50.830;12.082;2022-08-20T03:50:20;3.30;;;3.10;;
16099;SDS011;8154;50.830;12.082;2022-08-20T03:53:09;4.13;;;3.20;;
16099;SDS011;8154;50.830;12.082;2022-08-20T03:55:55;3.67;;;3.17;;
16099;SDS011;8154;50.830;12.082;2022-08-20T03:58:40;3.63;;;3.00;;
16099;SDS011;8154;50.830;12.082;2022-08-20T04:01:24;3.72;;;3.42;;
16099;SDS011;8154;50.830;12.082;2022-08-20T04:04:08;3.50;;;3.20;;
16099;SDS011;8154;50.830;12.082;2022-08-20T04:06:53;4.05;;;3.75;;
16099;SDS011;8154;50.830;12.082;2022-08-20T04:09:37;3.70;;;3.40;;
16099;SDS011;8154;50.830;12.082;2022-08-20T04:12:22;3.90;;;3.60;;
16099;SDS011;8154;50.830;12.082;2022-08-20T04:15:09;4.53;;;3.78;;
16099;SDS011;8154;50.830;12.082;2022-08-20T04:17:55;3.83;;;3.40;;
16099;SDS011;8154;50.830;12.082;2022-08-20T04:20:40;3.45;;;3.25;;
16099;SDS011;8154;50.830;12.082;2022-08-20T04:23:26;4.13;;;3.70;;
16099;SDS011;8154;50.830;12.082;2022-08-20T04:26:10;4.30;;;3.30;;
16099;SDS011;8154;50.830;12.082;2022-08-20T04:28:55;3.80;;;3.50;;
16099;SDS011;8154;50.830;12.082;2022-08-20T04:31:40;4.00;;;3.70;;
16099;SDS011;8154;50.830;12.082;2022-08-20T04:34:24;4.30;;;3.90;;
16099;SDS011;8154;50.830;12.082;2022-08-20T04:37:08;3.80;;;3.50;;
16099;SDS011;8154;50.830;12.082;2022-08-20T04:39:54;3.92;;;3.58;;
16099;SDS011;8154;50.830;12.082;2022-08-20T04:42:57;4.50;;;4.10;;
16099;SDS011;8154;50.830;12.082;2022-08-20T04:45:42;4.65;;;4.18;;
16099;SDS011;8154;50.830;12.082;2022-08-20T04:48:27;4.00;;;3.60;;
16099;SDS011;8154;50.830;12.082;2022-08-20T04:51:12;3.90;;;3.60;;
16099;SDS011;8154;50.830;12.082;2022-08-20T04:53:59;4.90;;;4.43;;
16099;SDS011;8154;50.830;12.082;2022-08-20T04:56:45;4.20;;;3.90;;
16099;SDS011;8154;50.830;12.082;2022-08-20T04:59:31;3.70;;;3.30;;
16099;SDS011;8154;50.830;12.082;2022-08-20T05:02:17;4.03;;;3.63;;
16099;SDS011;8154;50.830;12.082;2022-08-20T05:05:02;3.95;;;3.63;;
16099;SDS011;8154;50.830;12.082;2022-08-20T05:07:47;3.80;;;3.50;;
16099;SDS011;8154;50.830;12.082;2022-08-20T05:10:32;3.88;;;3.40;;
16099;SDS011;8154;50.830;12.082;2022-08-20T05:13:17;3.67;;;3.38;;
16099;SDS011;8154;50.830;12.082;2022-08-20T05:16:02;4.78;;;4.32;;
16099;SDS011;8154;50.830;12.082;2022-08-20T05:18:47;4.55;;;3.80;;
16099;SDS011;8154;50.830;12.082;2022-08-20T05:21:31;4.10;;;3.70;;
16099;SDS011;8154;50.830;12.082;2022-08-20T05:24:16;4.13;;;3.80;;
16099;SDS011;8154;50.830;12.082;2022-08-20T05:27:01;4.30;;;3.90;;
16099;SDS011;8154;50.830;12.082;2022-08-20T05:29:46;4.13;;;3.80;;
16099;SDS011;8154;50.830;12.082;2022-08-20T05:32:31;4.75;;;4.35;;
16099;SDS011;8154;50.830;12.082;2022-08-20T05:35:16;4.60;;;4.30;;
16099;SDS011;8154;50.830;12.082;2022-08-20T05:38:01;4.30;;;4.00;;
16099;SDS011;8154;50.830;12.082;2022-08-20T05:40:45;5.18;;;4.78;;
16099;SDS011;8154;50.830;12.082;2022-08-20T05:43:31;6.60;;;4.80;;
16099;SDS011;8154;50.830;12.082;2022-08-20T05:46:16;4.60;;;4.20;;
16099;SDS011;8154;50.830;12.082;2022-08-20T05:49:01;5.50;;;4.43;;
16099;SDS011;8154;50.830;12.082;2022-08-20T05:51:45;5.93;;;4.40;;
16099;SDS011;8154;50.830;12.082;2022-08-20T05:54:31;4.57;;;4.18;;
16099;SDS011;8154;50.830;12.082;2022-08-20T05:57:16;4.95;;;4.45;;
16099;SDS011;8154;50.830;12.082;2022-08-20T06:00:06;4.85;;;4.40;;
16099;SDS011;8154;50.830;12.082;2022-08-20T06:02:53;4.78;;;4.30;;
16099;SDS011;8154;50.830;12.082;2022-08-20T06:05:56;4.40;;;4.00;;
16099;SDS011;8154;50.830;12.082;2022-08-20T06:08:41;4.28;;;3.90;;
16099;SDS011;8154;50.830;12.082;2022-08-20T06:11:25;3.92;;;3.63;;
16099;SDS011;8154;50.830;12.082;2022-08-20T06:14:10;4.57;;;4.18;;
16099;SDS011;8154;50.830;12.082;2022-08-20T06:17:00;3.78;;;3.47;;
16099;SDS011;8154;50.830;12.082;2022-08-20T06:19:55;3.97;;;3.58;;
16099;SDS011;8154;50.830;12.082;2022-08-20T06:22:40;4.20;;;3.80;;
16099;SDS011;8154;50.830;12.082;2022-08-20T06:25:24;4.25;;;3.83;;
16099;SDS011;8154;50.830;12.082;2022-08-20T06:28:12;3.58;;;3.28;;
16099;SDS011;8154;50.830;12.082;2022-08-20T06:30:57;3.50;;;3.20;;
16099;SDS011;8154;50.830;12.082;2022-08-20T06:33:43;3.60;;;3.30;;
16099;SDS011;8154;50.830;12.082;2022-08-20T06:36:27;4.45;;;3.10;;
16099;SDS011;8154;50.830;12.082;2022-08-20T06:39:15;3.45;;;3.15;;
16099;SDS011;8154;50.830;12.082;2022-08-20T06:42:00;3.30;;;3.00;;
16099;SDS011;8154;50.830;12.082;2022-08-20T06:44:44;3.40;;;3.05;;
16099;SDS011;8154;50.830;12.082;2022-08-20T06:47:33;4.13;;;3.38;;
16099;SDS011;8154;50.830;12.082;2022-08-20T06:50:18;3.33;;;3.03;;
16099;SDS011;8154;50.830;12.082;2022-08-20T06:53:10;3.30;;;2.97;;
16099;SDS011;8154;50.830;12.082;2022-08-20T06:55:59;3.40;;;3.10;;
16099;SDS011;8154;50.830;12.082;2022-08-20T06:58:44;3.58;;;3.28;;
16099;SDS011;8154;50.830;12.082;2022-08-20T07:01:28;3.30;;;3.10;;
16099;SDS011;8154;50.830;12.082;2022-08-20T07:04:12;3.60;;;3.30;;
16099;SDS011;8154;50.830;12.082;2022-08-20T07:06:59;3.33;;;3.03;;
16099;SDS011;8154;50.830;12.082;2022-08-20T07:09:43;3.40;;;3.20;;
16099;SDS011;8154;50.830;12.082;2022-08-20T07:12:28;4.40;;;3.20;;
16099;SDS011;8154;50.830;12.082;2022-08-20T07:15:13;3.25;;;3.05;;
16099;SDS011;8154;50.830;12.082;2022-08-20T07:17:59;3.40;;;3.10;;
16099;SDS011;8154;50.830;12.082;2022-08-20T07:20:47;3.50;;;3.20;;
16099;SDS011;8154;50.830;12.082;2022-08-20T07:23:31;3.70;;;3.40;;
16099;SDS011;8154;50.830;12.082;2022-08-20T07:26:16;3.63;;;3.33;;
16099;SDS011;8154;50.830;12.082;2022-08-20T07:29:01;3.38;;;3.00;;
16099;SDS011;8154;50.830;12.082;2022-08-20T07:31:45;4.25;;;3.30;;
16099;SDS011;8154;50.830;12.082;2022-08-20T07:34:49;3.45;;;3.15;;
16099;SDS011;8154;50.830;12.082;2022-08-20T07:37:37;3.15;;;2.85;;
16099;SDS011;8154;50.830;12.082;2022-08-20T07:40:28;3.38;;;3.08;;
16099;SDS011;8154;50.830;12.082;2022-08-20T07:43:13;3.63;;;3.13;;
16099;SDS011;8154;50.830;12.082;2022-08-20T07:46:00;4.28;;;3.35;;
16099;SDS011;8154;50.830;12.082;2022-08-20T07:48:51;3.42;;;3.13;;
16099;SDS011;8154;50.830;12.082;2022-08-20T07:51:36;3.00;;;2.80;;
16099;SDS011;8154;50.830;12.082;2022-08-20T07:54:20;3.83;;;3.33;;
16099;SDS011;8154;50.830;12.082;2022-08-20T07:57:05;3.65;;;3.30;;
16099;SDS011;8154;50.830;12.082;2022-08-20T07:59:49;3.20;;;2.90;;
16099;SDS011;8154;50.830;12.082;2022-08-20T08:02:34;3.58;;;3.17;;
16099;SDS011;8154;50.830;12.082;2022-08-20T08:05:19;4.65;;;3.22;;
16099;SDS011;8154;50.830;12.082;2022-08-20T08:08:08;3.40;;;3.10;;
16099;SDS011;8154;50.830;12.082;2022-08-20T08:10:57;3.30;;;3.05;;
16099;SDS011;8154;50.830;12.082;2022-08-20T08:13:44;4.05;;;3.17;;
16099;SDS011;8154;50.830;12.082;2022-08-20T08:16:29;3.72;;;3.30;;
16099;SDS011;8154;50.830;12.082;2022-08-20T08:19:15;5.00;;;3.10;;
16099;SDS011;8154;50.830;12.082;2022-08-20T08:22:01;3.40;;;3.10;;
16099;SDS011;8154;50.830;12.082;2022-08-20T08:24:47;3.65;;;3.17;;
16099;SDS011;8154;50.830;12.082;2022-08-20T08:27:32;3.55;;;3.25;;
16099;SDS011;8154;50.830;12.082;2022-08-20T08:30:17;3.45;;;3.15;;
16099;SDS011;8154;50.830;12.082;2022-08-20T08:33:02;3.63;;;3.33;;
16099;SDS011;8154;50.830;12.082;2022-08-20T08:36:10;3.55;;;3.03;;
16099;SDS011;8154;50.830;12.082;2022-08-20T08:38:56;3.83;;;3.40;;
16099;SDS011;8154;50.830;12.082;2022-08-20T08:41:42;3.50;;;3.20;;
16099;SDS011;8154;50.830;12.082;2022-08-20T08:44:33;3.42;;;3.10;;
16099;SDS011;8154;50.830;12.082;2022-08-20T08:47:27;3.47;;;3.28;;
16099;SDS011;8154;50.830;12.082;2022-08-20T08:50:22;3.85;;;3.10;;
16099;SDS011;8154;50.830;12.082;2022-08-20T08:53:10;3.38;;;3.08;;
16099;SDS011;8154;50.830;12.082;2022-08-20T08:56:02;3.10;;;2.80;;
16099;SDS011;8154;50.830;12.082;2022-08-20T08:58:48;3.75;;;3.00;;
16099;SDS011;8154;50.830;12.082;2022-08-20T09:01:40;3.30;;;3.00;;
16099;SDS011;8154;50.830;12.082;2022-08-20T09:04:39;2.85;;;2.65;;
16099;SDS011;8154;50.830;12.082;2022-08-20T09:07:25;2.83;;;2.63;;
16099;SDS011;8154;50.830;12.082;2022-08-20T09:10:10;2.72;;;2.53;;
16099;SDS011;8154;50.830;12.082;2022-08-20T09:12:55;3.20;;;2.90;;
16099;SDS011;8154;50.830;12.082;2022-08-20T09:15:40;3.20;;;2.90;;
16099;SDS011;8154;50.830;12.082;2022-08-20T09:18:26;3.30;;;3.10;;
16099;SDS011;8154;50.830;12.082;2022-08-20T09:21:11;2.88;;;2.67;;
16099;SDS011;8154;50.830;12.082;2022-08-20T09:23:57;3.05;;;2.85;;
16099;SDS011;8154;50.830;12.082;2022-08-20T09:26:42;3.20;;;2.90;;
16099;SDS011;8154;50.830;12.082;2022-08-20T09:29:26;3.10;;;2.90;;
16099;SDS011;8154;50.830;12.082;2022-08-20T09:32:16;2.85;;;2.65;;
16099;SDS011;8154;50.830;12.082;2022-08-20T09:35:02;2.80;;;2.60;;
16099;SDS011;8154;50.830;12.082;2022-08-20T09:37:48;2.85;;;2.65;;
16099;SDS011;8154;50.830;12.082;2022-08-20T09:40:33;3.03;;;2.80;;
16099;SDS011;8154;50.830;12.082;2022-08-20T09:43:17;2.90;;;2.70;;
16099;SDS011;8154;50.830;12.082;2022-08-20T09:46:01;2.90;;;2.70;;
16099;SDS011;8154;50.830;12.082;2022-08-20T09:48:46;2.90;;;2.60;;
16099;SDS011;8154;50.830;12.082;2022-08-20T09:51:30;3.13;;;2.85;;
16099;SDS011;8154;50.830;12.082;2022-08-20T09:54:16;2.80;;;2.60;;
16099;SDS011;8154;50.830;12.082;2022-08-20T09:57:01;3.15;;;2.85;;
16099;SDS011;8154;50.830;12.082;2022-08-20T09:59:50;2.85;;;2.65;;
16099;SDS011;8154;50.830;12.082;2022-08-20T10:02:41;3.00;;;2.80;;
16099;SDS011;8154;50.830;12.082;2022-08-20T10:05:26;2.78;;;2.58;;
16099;SDS011;8154;50.830;12.082;2022-08-20T10:08:11;2.80;;;2.60;;
16099;SDS011;8154;50.830;12.082;2022-08-20T10:10:56;3.22;;;2.58;;
16099;SDS011;8154;50.830;12.082;2022-08-20T10:13:41;3.10;;;2.90;;
16099;SDS011;8154;50.830;12.082;2022-08-20T10:16:26;2.90;;;2.70;;
16099;SDS011;8154;50.830;12.082;2022-08-20T10:19:10;2.95;;;2.75;;
16099;SDS011;8154;50.830;12.082;2022-08-20T10:21:55;2.90;;;2.70;;
16099;SDS011;8154;50.830;12.082;2022-08-20T10:24:40;2.92;;;2.72;;
16099;SDS011;8154;50.830;12.082;2022-08-20T10:27:25;3.30;;;3.00;;
16099;SDS011;8154;50.830;12.082;2022-08-20T10:30:10;3.28;;;3.08;;
16099;SDS011;8154;50.830;12.082;2022-08-20T10:32:55;3.25;;;3.00;;
16099;SDS011;8154;50.830;12.082;2022-08-20T10:35:39;3.10;;;2.90;;
16099;SDS011;8154;50.830;12.082;2022-08-20T10:38:24;3.45;;;3.10;;
16099;SDS011;8154;50.830;12.082;2022-08-20T10:41:08;3.20;;;3.00;;
16099;SDS011;8154;50.830;12.082;2022-08-20T10:43:53;3.30;;;3.05;;
16099;SDS011;8154;50.830;12.082;2022-08-20T10:46:37;3.08;;;2.88;;
16099;SDS011;8154;50.830;12.082;2022-08-20T10:49:23;3.00;;;2.80;;
16099;SDS011;8154;50.830;12.082;2022-08-20T10:52:07;4.03;;;3.00;;
16099;SDS011;8154;50.830;12.082;2022-08-20T10:54:52;2.90;;;2.70;;
16099;SDS011;8154;50.830;12.082;2022-08-20T10:57:38;3.50;;;3.08;;
16099;SDS011;8154;50.830;12.082;2022-08-20T11:00:24;3.28;;;2.90;;
16099;SDS011;8154;50.830;12.082;2022-08-20T11:03:09;3.15;;;2.92;;
16099;SDS011;8154;50.830;12.082;2022-08-20T11:05:54;3.22;;;3.03;;
16099;SDS011;8154;50.830;12.082;2022-08-20T11:08:38;3.08;;;2.88;;
16099;SDS011;8154;50.830;12.082;2022-08-20T11:11:23;3.10;;;2.90;;
16099;SDS011;8154;50.830;12.082;2022-08-20T11:14:08;3.08;;;2.85;;
16099;SDS011;8154;50.830;12.082;2022-08-20T11:16:53;3.42;;;3.13;;
16099;SDS011;8154;50.830;12.082;2022-08-20T11:19:38;3.13;;;2.92;;
16099;SDS011;8154;50.830;12.082;2022-08-20T11:22:24;3.30;;;3.00;;
16099;SDS011;8154;50.830;12.082;2022-08-20T11:25:09;2.88;;;2.60;;
16099;SDS011;8154;50.830;12.082;2022-08-20T11:27:54;3.22;;;2.92;;
16099;SDS011;8154;50.830;12.082;2022-08-20T11:30:39;3.83;;;3.08;;
16099;SDS011;8154;50.830;12.082;2022-08-20T11:33:25;3.00;;;2.80;;
16099;SDS011;8154;50.830;12.082;2022-08-20T11:36:09;2.80;;;2.60;;
16099;SDS011;8154;50.830;12.082;2022-08-20T11:38:54;3.05;;;2.85;;
16099;SDS011;8154;50.830;12.082;2022-08-20T11:41:38;3.20;;;3.00;;
16099;SDS011;8154;50.830;12.082;2022-08-20T11:44:23;3.50;;;3.20;;
16099;SDS011;8154;50.830;12.082;2022-08-20T11:47:07;3.33;;;3.13;;
16099;SDS011;8154;50.830;12.082;2022-08-20T11:50:04;3.70;;;3.40;;
16099;SDS011;8154;50.830;12.082;2022-08-20T11:52:50;3.30;;;3.00;;
16099;SDS011;8154;50.830;12.082;2022-08-20T11:55:35;3.33;;;3.00;;
16099;SDS011;8154;50.830;12.082;2022-08-20T11:58:20;3.40;;;3.10;;
16099;SDS011;8154;50.830;12.082;2022-08-20T12:01:04;3.28;;;3.08;;
16099;SDS011;8154;50.830;12.082;2022-08-20T12:03:49;3.70;;;3.40;;
16099;SDS011;8154;50.830;12.082;2022-08-20T12:06:34;3.80;;;3.50;;
16099;SDS011;8154;50.830;12.082;2022-08-20T12:09:19;3.17;;;2.88;;
16099;SDS011;8154;50.830;12.082;2022-08-20T12:12:03;3.20;;;3.00;;
16099;SDS011;8154;50.830;12.082;2022-08-20T12:14:52;5.70;;;3.47;;
16099;SDS011;8154;50.830;12.082;2022-08-20T12:17:38;3.53;;;3.22;;
16099;SDS011;8154;50.830;12.082;2022-08-20T12:20:22;3.80;;;3.50;;
16099;SDS011;8154;50.830;12.082;2022-08-20T12:23:07;4.53;;;3.40;;
16099;SDS011;8154;50.830;12.082;2022-08-20T12:25:51;3.80;;;3.50;;
16099;SDS011;8154;50.830;12.082;2022-08-20T12:28:37;3.67;;;3.38;;
16099;SDS011;8154;50.830;12.082;2022-08-20T12:31:21;3.95;;;3.55;;
16099;SDS011;8154;50.830;12.082;2022-08-20T12:34:05;3.60;;;3.30;;
16099;SDS011;8154;50.830;12.082;2022-08-20T12:36:49;4.00;;;3.70;;
16099;SDS011;8154;50.830;12.082;2022-08-20T12:39:44;3.90;;;3.60;;
16099;SDS011;8154;50.830;12.082;2022-08-20T12:42:30;4.30;;;3.90;;
16099;SDS011;8154;50.830;12.082;2022-08-20T12:45:14;4.25;;;3.95;;
16099;SDS011;8154;50.830;12.082;2022-08-20T12:48:01;3.90;;;3.70;;
16099;SDS011;8154;50.830;12.082;2022-08-20T12:50:48;3.85;;;3.55;;
16099;SDS011;8154;50.830;12.082;2022-08-20T12:53:32;4.10;;;3.80;;
16099;SDS011;8154;50.830;12.082;2022-08-20T12:56:17;4.13;;;3.83;;
16099;SDS011;8154;50.830;12.082;2022-08-20T12:59:01;3.92;;;3.63;;
16099;SDS011;8154;50.830;12.082;2022-08-20T13:01:45;4.03;;;3.65;;
16099;SDS011;8154;50.830;12.082;2022-08-20T13:04:30;4.00;;;3.70;;
16099;SDS011;8154;50.830;12.082;2022-08-20T13:07:14;4.10;;;3.83;;
16099;SDS011;8154;50.830;12.082;2022-08-20T13:09:59;4.10;;;3.80;;
16099;SDS011;8154;50.830;12.082;2022-08-20T13:12:46;4.20;;;3.90;;
16099;SDS011;8154;50.830;12.082;2022-08-20T13:15:31;4.20;;;3.88;;
16099;SDS011;8154;50.830;12.082;2022-08-20T13:18:16;4.40;;;4.10;;
16099;SDS011;8154;50.830;12.082;2022-08-20T13:21:01;4.47;;;4.18;;
16099;SDS011;8154;50.830;12.082;2022-08-20T13:23:46;4.00;;;3.70;;
16099;SDS011;8154;50.830;12.082;2022-08-20T13:26:30;4.53;;;4.13;;
16099;SDS011;8154;50.830;12.082;2022-08-20T13:29:15;4.10;;;3.80;;
16099;SDS011;8154;50.830;12.082;2022-08-20T13:31:59;4.40;;;4.10;;
16099;SDS011;8154;50.830;12.082;2022-08-20T13:34:44;4.20;;;3.90;;
16099;SDS011;8154;50.830;12.082;2022-08-20T13:37:29;4.28;;;3.97;;
16099;SDS011;8154;50.830;12.082;2022-08-20T13:40:13;4.32;;;3.92;;
16099;SDS011;8154;50.830;12.082;2022-08-20T13:42:57;4.18;;;3.88;;
16099;SDS011;8154;50.830;12.082;2022-08-20T13:45:43;4.32;;;3.90;;
16099;SDS011;8154;50.830;12.082;2022-08-20T13:48:27;4.22;;;3.92;;
16099;SDS011;8154;50.830;12.082;2022-08-20T13:51:11;4.35;;;4.05;;
16099;SDS011;8154;50.830;12.082;2022-08-20T13:53:55;4.28;;;3.97;;
16099;SDS011;8154;50.830;12.082;2022-08-20T13:56:39;4.13;;;3.72;;
16099;SDS011;8154;50.830;12.082;2022-08-20T13:59:24;4.20;;;3.90;;
16099;SDS011;8154;50.830;12.082;2022-08-20T14:02:09;4.10;;;3.80;;
16099;SDS011;8154;50.830;12.082;2022-08-20T14:04:54;4.40;;;4.10;;
16099;SDS011;8154;50.830;12.082;2022-08-20T14:07:38;4.00;;;3.78;;
16099;SDS011;8154;50.830;12.082;2022-08-20T14:10:23;4.00;;;3.70;;
16099;SDS011;8154;50.830;12.082;2022-08-20T14:13:10;3.95;;;3.67;;
16099;SDS011;8154;50.830;12.082;2022-08-20T14:15:54;4.00;;;3.67;;
16099;SDS011;8154;50.830;12.082;2022-08-20T14:18:39;4.13;;;3.83;;
16099;SDS011;8154;50.830;12.082;2022-08-20T14:21:23;4.15;;;3.85;;
16099;SDS011;8154;50.830;12.082;2022-08-20T14:24:08;4.30;;;3.90;;
16099;SDS011;8154;50.830;12.082;2022-08-20T14:26:52;4.18;;;3.85;;
16099;SDS011;8154;50.830;12.082;2022-08-20T14:29:36;4.35;;;4.05;;
16099;SDS011;8154;50.830;12.082;2022-08-20T14:32:22;4.03;;;3.70;;
16099;SDS011;8154;50.830;12.082;2022-08-20T14:35:06;4.20;;;3.90;;
16099;SDS011;8154;50.830;12.082;2022-08-20T14:37:52;4.20;;;3.90;;
16099;SDS011;8154;50.830;12.082;2022-08-20T14:40:36;4.18;;;3.85;;
16099;SDS011;8154;50.830;12.082;2022-08-20T14:43:20;4.32;;;4.03;;
16099;SDS011;8154;50.830;12.082;2022-08-20T14:46:05;4.10;;;3.80;;
16099;SDS011;8154;50.830;12.082;2022-08-20T14:48:49;4.32;;;4.00;;
16099;SDS011;8154;50.830;12.082;2022-08-20T14:51:33;4.20;;;3.83;;
16099;SDS011;8154;50.830;12.082;2022-08-20T14:54:18;4.53;;;4.20;;
16099;SDS011;8154;50.830;12.082;2022-08-20T14:57:02;4.38;;;4.07;;
16099;SDS011;8154;50.830;12.082;2022-08-20T14:59:47;4.63;;;4.22;;
16099;SDS011;8154;50.830;12.082;2022-08-20T15:02:35;4.50;;;4.20;;
16099;SDS011;8154;50.830;12.082;2022-08-20T15:05:20;4.30;;;4.00;;
16099;SDS011;8154;50.830;12.082;2022-08-20T15:08:05;4.35;;;4.00;;
16099;SDS011;8154;50.830;12.082;2022-08-20T15:10:50;4.32;;;4.03;;
16099;SDS011;8154;50.830;12.082;2022-08-20T15:13:36;4.68;;;4.20;;
16099;SDS011;8154;50.830;12.082;2022-08-20T15:16:20;4.20;;;3.90;;
16099;SDS011;8154;50.830;12.082;2022-08-20T15:19:04;4.50;;;4.20;;
16099;SDS011;8154;50.830;12.082;2022-08-20T15:21:48;4.57;;;4.18;;
16099;SDS011;8154;50.830;12.082;2022-08-20T15:24:32;4.60;;;4.20;;
16099;SDS011;8154;50.830;12.082;2022-08-20T15:27:18;4.00;;;3.70;;
16099;SDS011;8154;50.830;12.082;2022-08-20T15:30:06;4.72;;;4.20;;
16099;SDS011;8154;50.830;12.082;2022-08-20T15:32:56;4.35;;;4.05;;
16099;SDS011;8154;50.830;12.082;2022-08-20T15:35:40;4.32;;;3.95;;
16099;SDS011;8154;50.830;12.082;2022-08-20T15:38:24;4.20;;;3.90;;
16099;SDS011;8154;50.830;12.082;2022-08-20T15:41:09;4.53;;;4.22;;
16099;SDS011;8154;50.830;12.082;2022-08-20T15:43:53;4.40;;;4.10;;
16099;SDS011;8154;50.830;12.082;2022-08-20T15:46:37;4.45;;;4.15;;
16099;SDS011;8154;50.830;12.082;2022-08-20T15:49:21;4.78;;;4.40;;
16099;SDS011;8154;50.830;12.082;2022-08-20T15:52:07;4.60;;;4.30;;
16099;SDS011;8154;50.830;12.082;2022-08-20T15:54:51;4.40;;;4.10;;
16099;SDS011;8154;50.830;12.082;2022-08-20T16:01:04;5.13;;;4.70;;
16099;SDS011;8154;50.830;12.082;2022-08-20T16:07:17;4.85;;;4.40;;
16099;SDS011;8154;50.830;12.082;2022-08-20T16:13:24;5.13;;;4.50;;
16099;SDS011;8154;50.830;12.082;2022-08-20T16:16:21;4.70;;;4.40;;
16099;SDS011;8154;50.830;12.082;2022-08-20T16:19:16;4.82;;;4.40;;
16099;SDS011;8154;50.830;12.082;2022-08-20T16:22:06;4.45;;;4.15;;
16099;SDS011;8154;50.830;12.082;2022-08-20T16:24:56;4.90;;;4.40;;
16099;SDS011;8154;50.830;12.082;2022-08-20T16:27:46;4.70;;;4.40;;
16099;SDS011;8154;50.830;12.082;2022-08-20T16:30:46;4.40;;;4.10;;
16099;SDS011;8154;50.830;12.082;2022-08-20T16:33:43;4.50;;;4.20;;
16099;SDS011;8154;50.830;12.082;2022-08-20T16:36:57;4.40;;;4.10;;
16099;SDS011;8154;50.830;12.082;2022-08-20T16:42:53;4.63;;;4.32;;
16099;SDS011;8154;50.830;12.082;2022-08-20T16:45:48;4.63;;;4.22;;
16099;SDS011;8154;50.830;12.082;2022-08-20T16:48:37;4.55;;;4.25;;
16099;SDS011;8154;50.830;12.082;2022-08-20T16:51:40;4.57;;;4.25;;
16099;SDS011;8154;50.830;12.082;2022-08-20T16:54:28;4.63;;;4.32;;
16099;SDS011;8154;50.830;12.082;2022-08-20T16:57:12;4.50;;;4.20;;
16099;SDS011;8154;50.830;12.082;2022-08-20T17:00:11;4.80;;;4.10;;
16099;SDS011;8154;50.830;12.082;2022-08-20T17:05:52;4.22;;;3.92;;
16099;SDS011;8154;50.830;12.082;2022-08-20T17:08:40;4.40;;;4.10;;